Airfield :
LOGIN :

Register | Disclaimer

   EN    FR    IT 

 










Legend :    VFR   Marginal VFR   IFR   Intensive IFR   Very Intensive IFR
Visi :
Ceiling :
>= 8 km
>= 3000ft
5 to 8 km
1000 to 3000 ft
1500m to 5 km
500 to 1000 ft
800 to 1500m
200 to 500 ft
< 800m
< 200 ft
Symbols :   Thunderstorms  Fog  Heavy snow  Heavy precipitations  Wind > 20 kt
SIGMETs :     Misc.  Thunderstorms  Icing  Turbulence  Mountain Waves  Volcanic Ashes






- Airport Elevation : 274 ft
- IATA code : PUY


LDPL - Pula

CURRENT METAR :
  • 050200Z 02009KT 350V050 CAVOK 23/15 Q1006 TEMPO TSRA FEW035 BKN040CB

EXPIRED METARs :
  • 050130Z 02009KT 340V050 CAVOK 23/14 Q1006
  • 050100Z 36005KT 300V040 CAVOK 23/15 Q1006
  • 050030Z 36007KT 330V040 9999 FEW030 23/15 Q1007
  • 050000Z 33005KT 280V360 CAVOK 23/17 Q1007

TAF TAF LDPL
Valid from the 05 at 00:00 until the 06 at 00:00 UTC


042325Z 0500/0600 09006KT 9999 FEW040 TX26/0514Z TN18/0523Z
PROB40
TEMPO 0500/0516 30015G25KT 3000 TSRA FEW035CB SCT040
BECMG 0504/0506 27012KT
BECMG 0517/0519 07006KT



MET'MAP, your aeronautical weather chart ! - Copyright ORBIFLY December 2007 - Disclaimer

ORBIFLY MET'MAP TEAM :

Programming & Development : Alexandra Zaïnal
Concept & original design : Baudouin d'Aumeries
Assistance for programming : Marc-Olivier Méhu
Technical & hardware support : Manuel Goepfert

Contact : metmap@orbifly.com




SOURCES & CREDITS :

   NOAA